RYR3SF LEPA-LEAL
Flight info
| Callsign | RYR3SF |
|---|---|
| Flight time | 0h 43m |
| Altitude | 25000 |
| Route | BAVER M603 GERVU |
| Aircraft | B738/M-SDE2E3FGHIRWXY/LB1 |
Departure
| Time | 2026-05-05 17:48 |
|---|---|
| Airport | Palma de Mallorca Airport (LEPA) |
Arrival
| Time | 2026-05-05 18:32 |
|---|---|
| Airport | Alicante-Elche Miguel Hernández Airport (LEAL) |
| Time | Latitude | Longitude | Altitude | Speed | Heading |
|---|---|---|---|---|---|
| 2026-05-05 17:17 | 39.55275 | 2.72941 | 17 ft | 0 kts | 194° |
| 2026-05-05 17:39 | 39.55272 | 2.72940 | 17 ft | 3 kts | 194° |
| 2026-05-05 17:39 | 39.55229 | 2.72954 | 18 ft | 9 kts | 133° |
| 2026-05-05 17:39 | 39.55250 | 2.73040 | 19 ft | 10 kts | 57° |
| 2026-05-05 17:39 | 39.55287 | 2.73116 | 22 ft | 8 kts | 58° |
| 2026-05-05 17:40 | 39.55302 | 2.73147 | 23 ft | 0 kts | 57° |
| 2026-05-05 17:40 | 39.55310 | 2.73163 | 23 ft | 9 kts | 58° |
| 2026-05-05 17:40 | 39.55361 | 2.73272 | 24 ft | 14 kts | 59° |
| 2026-05-05 17:41 | 39.55422 | 2.73404 | 27 ft | 18 kts | 60° |
| 2026-05-05 17:41 | 39.55487 | 2.73545 | 27 ft | 17 kts | 47° |
| 2026-05-05 17:41 | 39.55595 | 2.73520 | 24 ft | 17 kts | 329° |
| 2026-05-05 17:41 | 39.55688 | 2.73565 | 23 ft | 17 kts | 63° |
| 2026-05-05 17:42 | 39.55735 | 2.73674 | 22 ft | 13 kts | 60° |
| 2026-05-05 17:42 | 39.55779 | 2.73770 | 23 ft | 11 kts | 59° |
| 2026-05-05 17:42 | 39.55817 | 2.73853 | 25 ft | 9 kts | 59° |
| 2026-05-05 17:42 | 39.55856 | 2.73933 | 25 ft | 10 kts | 58° |
| 2026-05-05 17:43 | 39.55901 | 2.74027 | 25 ft | 17 kts | 58° |
| 2026-05-05 17:43 | 39.55963 | 2.74156 | 25 ft | 16 kts | 59° |
| 2026-05-05 17:43 | 39.56019 | 2.74276 | 25 ft | 14 kts | 59° |
| 2026-05-05 17:43 | 39.56070 | 2.74387 | 23 ft | 15 kts | 59° |
| 2026-05-05 17:44 | 39.56124 | 2.74451 | 22 ft | 4 kts | 8° |
| 2026-05-05 17:44 | 39.56131 | 2.74453 | 22 ft | 0 kts | 7° |
| 2026-05-05 17:45 | 39.56147 | 2.74453 | 22 ft | 8 kts | 353° |
| 2026-05-05 17:45 | 39.56203 | 2.74416 | 21 ft | 9 kts | 327° |
| 2026-05-05 17:45 | 39.56248 | 2.74355 | 20 ft | 9 kts | 278° |
| 2026-05-05 17:45 | 39.56229 | 2.74278 | 20 ft | 8 kts | 240° |
| 2026-05-05 17:46 | 39.56224 | 2.74267 | 20 ft | 0 kts | 239° |
| 2026-05-05 17:47 | 39.56158 | 2.74126 | 21 ft | 51 kts | 238° |
| 2026-05-05 17:47 | 39.55851 | 2.73477 | 21 ft | 115 kts | 238° |
| 2026-05-05 17:48 | 39.55332 | 2.72379 | 33 ft | 166 kts | 239° |
| 2026-05-05 17:48 | 39.54782 | 2.71106 | 726 ft | 163 kts | 239° |
| 2026-05-05 17:48 | 39.54010 | 2.69922 | 1167 ft | 181 kts | 227° |
| 2026-05-05 17:48 | 39.53182 | 2.68679 | 1709 ft | 189 kts | 234° |
| 2026-05-05 17:49 | 39.52394 | 2.67248 | 2069 ft | 203 kts | 236° |
| 2026-05-05 17:49 | 39.51590 | 2.65695 | 2463 ft | 216 kts | 238° |
| 2026-05-05 17:49 | 39.50811 | 2.64039 | 3166 ft | 216 kts | 240° |
| 2026-05-05 17:49 | 39.50060 | 2.62376 | 3873 ft | 215 kts | 241° |
| 2026-05-05 17:50 | 39.49289 | 2.60734 | 4546 ft | 216 kts | 239° |
| 2026-05-05 17:50 | 39.48483 | 2.59076 | 4960 ft | 221 kts | 239° |
| 2026-05-05 17:50 | 39.47667 | 2.57401 | 4981 ft | 219 kts | 239° |
| 2026-05-05 17:50 | 39.46863 | 2.55742 | 4976 ft | 222 kts | 239° |
| 2026-05-05 17:51 | 39.46004 | 2.53958 | 5228 ft | 243 kts | 239° |
| 2026-05-05 17:51 | 39.45078 | 2.52054 | 5671 ft | 256 kts | 239° |
| 2026-05-05 17:51 | 39.44101 | 2.50104 | 6287 ft | 261 kts | 239° |
| 2026-05-05 17:51 | 39.43111 | 2.48143 | 6996 ft | 263 kts | 238° |
| 2026-05-05 17:52 | 39.42119 | 2.46175 | 7706 ft | 265 kts | 239° |
| 2026-05-05 17:52 | 39.41095 | 2.44137 | 8180 ft | 277 kts | 239° |
| 2026-05-05 17:52 | 39.40029 | 2.42012 | 8653 ft | 289 kts | 238° |
| 2026-05-05 17:52 | 39.38908 | 2.39781 | 9082 ft | 302 kts | 238° |
| 2026-05-05 17:53 | 39.37747 | 2.37473 | 9652 ft | 310 kts | 238° |
| 2026-05-05 17:53 | 39.36571 | 2.35137 | 10402 ft | 312 kts | 238° |
| 2026-05-05 17:53 | 39.35388 | 2.32791 | 11162 ft | 315 kts | 237° |
| 2026-05-05 17:53 | 39.34196 | 2.30429 | 11937 ft | 317 kts | 237° |
| 2026-05-05 17:54 | 39.32995 | 2.28049 | 12687 ft | 320 kts | 237° |
| 2026-05-05 17:54 | 39.31780 | 2.25642 | 13437 ft | 323 kts | 237° |
| 2026-05-05 17:54 | 39.30553 | 2.23212 | 14218 ft | 325 kts | 237° |
| 2026-05-05 17:54 | 39.29324 | 2.20779 | 15043 ft | 325 kts | 237° |
| 2026-05-05 17:55 | 39.28089 | 2.18339 | 15804 ft | 328 kts | 237° |
| 2026-05-05 17:55 | 39.26845 | 2.15883 | 16603 ft | 328 kts | 237° |
| 2026-05-05 17:55 | 39.25594 | 2.13413 | 17321 ft | 331 kts | 238° |
| 2026-05-05 17:55 | 39.24337 | 2.10934 | 18058 ft | 332 kts | 238° |
| 2026-05-05 17:56 | 39.23076 | 2.08448 | 18752 ft | 334 kts | 238° |
| 2026-05-05 17:56 | 39.21804 | 2.05941 | 19400 ft | 337 kts | 238° |
| 2026-05-05 17:56 | 39.20517 | 2.03408 | 19995 ft | 341 kts | 238° |
| 2026-05-05 17:56 | 39.19220 | 2.00859 | 20627 ft | 343 kts | 238° |
| 2026-05-05 17:57 | 39.17910 | 1.98286 | 21226 ft | 346 kts | 238° |
| 2026-05-05 17:57 | 39.16642 | 1.95657 | 21806 ft | 348 kts | 241° |
| 2026-05-05 17:57 | 39.15559 | 1.92876 | 22390 ft | 350 kts | 247° |
| 2026-05-05 17:57 | 39.14713 | 1.89933 | 22838 ft | 354 kts | 251° |
| 2026-05-05 17:58 | 39.14003 | 1.86896 | 22891 ft | 356 kts | 253° |
| 2026-05-05 17:58 | 39.13358 | 1.83838 | 22883 ft | 353 kts | 254° |
| 2026-05-05 17:58 | 39.12734 | 1.80788 | 22883 ft | 355 kts | 254° |
| 2026-05-05 17:58 | 39.12106 | 1.77724 | 22885 ft | 355 kts | 254° |
| 2026-05-05 17:59 | 39.11473 | 1.74672 | 22886 ft | 353 kts | 254° |
| 2026-05-05 17:59 | 39.10832 | 1.71624 | 22888 ft | 354 kts | 254° |
| 2026-05-05 17:59 | 39.10182 | 1.68561 | 22887 ft | 353 kts | 254° |
| 2026-05-05 17:59 | 39.09531 | 1.65514 | 22886 ft | 353 kts | 254° |
| 2026-05-05 18:00 | 39.08880 | 1.62476 | 22887 ft | 352 kts | 254° |
| 2026-05-05 18:00 | 39.08230 | 1.59456 | 22888 ft | 351 kts | 254° |
| 2026-05-05 18:00 | 39.07579 | 1.56437 | 22888 ft | 351 kts | 255° |
| 2026-05-05 18:00 | 39.06926 | 1.53415 | 22888 ft | 350 kts | 254° |
| 2026-05-05 18:01 | 39.06275 | 1.50406 | 22889 ft | 351 kts | 254° |
| 2026-05-05 18:01 | 39.05623 | 1.47397 | 22892 ft | 350 kts | 254° |
| 2026-05-05 18:01 | 39.04971 | 1.44394 | 22888 ft | 349 kts | 254° |
| 2026-05-05 18:01 | 39.04317 | 1.41384 | 22891 ft | 351 kts | 254° |
| 2026-05-05 18:02 | 39.03661 | 1.38369 | 22889 ft | 351 kts | 254° |
| 2026-05-05 18:02 | 39.03002 | 1.35348 | 22891 ft | 353 kts | 254° |
| 2026-05-05 18:02 | 39.02338 | 1.32303 | 22894 ft | 353 kts | 254° |
| 2026-05-05 18:02 | 39.01679 | 1.29282 | 22896 ft | 352 kts | 253° |
| 2026-05-05 18:03 | 39.01019 | 1.26264 | 22899 ft | 351 kts | 254° |
| 2026-05-05 18:03 | 39.00360 | 1.23259 | 22901 ft | 350 kts | 254° |
| 2026-05-05 18:03 | 38.99701 | 1.20254 | 22902 ft | 350 kts | 253° |
| 2026-05-05 18:03 | 38.99041 | 1.17252 | 22906 ft | 350 kts | 254° |
| 2026-05-05 18:04 | 38.98378 | 1.14243 | 22908 ft | 350 kts | 254° |
| 2026-05-05 18:04 | 38.97716 | 1.11240 | 22907 ft | 350 kts | 254° |
| 2026-05-05 18:04 | 38.97056 | 1.08245 | 22905 ft | 349 kts | 253° |
| 2026-05-05 18:04 | 38.96394 | 1.05249 | 22904 ft | 351 kts | 254° |
| 2026-05-05 18:05 | 38.95726 | 1.02231 | 22903 ft | 351 kts | 253° |
| 2026-05-05 18:05 | 38.95062 | 0.99234 | 22905 ft | 349 kts | 254° |
| 2026-05-05 18:05 | 38.94399 | 0.96245 | 22906 ft | 350 kts | 254° |
| 2026-05-05 18:05 | 38.93732 | 0.93242 | 22902 ft | 351 kts | 254° |
| 2026-05-05 18:06 | 38.93061 | 0.90222 | 22906 ft | 352 kts | 254° |
| 2026-05-05 18:06 | 38.92613 | 0.88211 | 22900 ft | 351 kts | 254° |
| 2026-05-05 18:06 | 38.91717 | 0.84192 | 22899 ft | 352 kts | 253° |
| 2026-05-05 18:06 | 38.91045 | 0.81182 | 22897 ft | 352 kts | 254° |
| 2026-05-05 18:07 | 38.90370 | 0.78165 | 22892 ft | 353 kts | 254° |
| 2026-05-05 18:07 | 38.89693 | 0.75142 | 22888 ft | 353 kts | 254° |
| 2026-05-05 18:07 | 38.89014 | 0.72113 | 22883 ft | 353 kts | 254° |
| 2026-05-05 18:07 | 38.88337 | 0.69097 | 22883 ft | 353 kts | 254° |
| 2026-05-05 18:08 | 38.87616 | 0.66082 | 22882 ft | 353 kts | 251° |
| 2026-05-05 18:08 | 38.86756 | 0.63129 | 22880 ft | 355 kts | 249° |
| 2026-05-05 18:08 | 38.85823 | 0.60213 | 22878 ft | 354 kts | 248° |
| 2026-05-05 18:08 | 38.84873 | 0.57307 | 22879 ft | 354 kts | 248° |
| 2026-05-05 18:09 | 38.83928 | 0.54395 | 22880 ft | 355 kts | 249° |
| 2026-05-05 18:09 | 38.82985 | 0.51460 | 22881 ft | 356 kts | 249° |
| 2026-05-05 18:09 | 38.82061 | 0.48519 | 22882 ft | 356 kts | 250° |
| 2026-05-05 18:09 | 38.81277 | 0.45513 | 22881 ft | 357 kts | 253° |
| 2026-05-05 18:10 | 38.80616 | 0.42458 | 22879 ft | 356 kts | 255° |
| 2026-05-05 18:10 | 38.80000 | 0.39391 | 22876 ft | 356 kts | 256° |
| 2026-05-05 18:10 | 38.79389 | 0.36316 | 22876 ft | 356 kts | 256° |
| 2026-05-05 18:10 | 38.78769 | 0.33236 | 22875 ft | 356 kts | 255° |
| 2026-05-05 18:11 | 38.78138 | 0.30149 | 22872 ft | 356 kts | 254° |
| 2026-05-05 18:11 | 38.77505 | 0.27097 | 22877 ft | 357 kts | 255° |
| 2026-05-05 18:11 | 38.76864 | 0.24031 | 22877 ft | 356 kts | 254° |
| 2026-05-05 18:11 | 38.76223 | 0.20985 | 22879 ft | 356 kts | 254° |
| 2026-05-05 18:12 | 38.75576 | 0.17920 | 22882 ft | 357 kts | 254° |
| 2026-05-05 18:12 | 38.74929 | 0.14868 | 22883 ft | 356 kts | 254° |
| 2026-05-05 18:12 | 38.74280 | 0.11812 | 22879 ft | 357 kts | 254° |
| 2026-05-05 18:12 | 38.73631 | 0.08763 | 22879 ft | 353 kts | 254° |
| 2026-05-05 18:13 | 38.72999 | 0.05795 | 22882 ft | 339 kts | 254° |
| 2026-05-05 18:13 | 38.72389 | 0.02932 | 22837 ft | 333 kts | 254° |
| 2026-05-05 18:13 | 38.71773 | 0.00050 | 22530 ft | 339 kts | 255° |
| 2026-05-05 18:13 | 38.71153 | -0.02850 | 22092 ft | 337 kts | 254° |
| 2026-05-05 18:14 | 38.70541 | -0.05708 | 21624 ft | 332 kts | 254° |
| 2026-05-05 18:14 | 38.69932 | -0.08546 | 21173 ft | 328 kts | 255° |
| 2026-05-05 18:14 | 38.69331 | -0.11346 | 20719 ft | 323 kts | 254° |
| 2026-05-05 18:14 | 38.68738 | -0.14105 | 20266 ft | 319 kts | 255° |
| 2026-05-05 18:15 | 38.68150 | -0.16833 | 19828 ft | 315 kts | 254° |
| 2026-05-05 18:15 | 38.67567 | -0.19537 | 19375 ft | 312 kts | 255° |
| 2026-05-05 18:15 | 38.66990 | -0.22212 | 18930 ft | 308 kts | 255° |
| 2026-05-05 18:15 | 38.66421 | -0.24843 | 18486 ft | 308 kts | 255° |
| 2026-05-05 18:16 | 38.65849 | -0.27490 | 18034 ft | 311 kts | 255° |
| 2026-05-05 18:16 | 38.65271 | -0.30158 | 17582 ft | 312 kts | 255° |
| 2026-05-05 18:16 | 38.64697 | -0.32810 | 17136 ft | 309 kts | 255° |
| 2026-05-05 18:16 | 38.64127 | -0.35437 | 16683 ft | 306 kts | 255° |
| 2026-05-05 18:17 | 38.63562 | -0.38035 | 16235 ft | 303 kts | 255° |
| 2026-05-05 18:17 | 38.63002 | -0.40608 | 15799 ft | 300 kts | 255° |
| 2026-05-05 18:17 | 38.62446 | -0.43161 | 15356 ft | 298 kts | 255° |
| 2026-05-05 18:17 | 38.61892 | -0.45704 | 14917 ft | 295 kts | 255° |
| 2026-05-05 18:18 | 38.61342 | -0.48224 | 14486 ft | 295 kts | 255° |
| 2026-05-05 18:18 | 38.60785 | -0.50765 | 14048 ft | 300 kts | 255° |
| 2026-05-05 18:18 | 38.60223 | -0.53325 | 13605 ft | 300 kts | 255° |
| 2026-05-05 18:18 | 38.59662 | -0.55881 | 13171 ft | 297 kts | 255° |
| 2026-05-05 18:19 | 38.59106 | -0.58413 | 12739 ft | 294 kts | 255° |
| 2026-05-05 18:19 | 38.58557 | -0.60914 | 12310 ft | 292 kts | 255° |
| 2026-05-05 18:19 | 38.58014 | -0.63396 | 11890 ft | 290 kts | 255° |
| 2026-05-05 18:19 | 38.57473 | -0.65889 | 11464 ft | 294 kts | 255° |
| 2026-05-05 18:20 | 38.56925 | -0.68422 | 11083 ft | 297 kts | 255° |
| 2026-05-05 18:20 | 38.56382 | -0.70919 | 10894 ft | 287 kts | 255° |
| 2026-05-05 18:20 | 38.55853 | -0.73317 | 10797 ft | 274 kts | 255° |
| 2026-05-05 18:20 | 38.55341 | -0.75605 | 10703 ft | 263 kts | 255° |
| 2026-05-05 18:21 | 38.54856 | -0.77799 | 10606 ft | 252 kts | 255° |
| 2026-05-05 18:21 | 38.54395 | -0.79906 | 10513 ft | 243 kts | 255° |
| 2026-05-05 18:21 | 38.53848 | -0.81945 | 10398 ft | 245 kts | 246° |
| 2026-05-05 18:21 | 38.52912 | -0.83769 | 10018 ft | 249 kts | 233° |
| 2026-05-05 18:22 | 38.51734 | -0.85417 | 9678 ft | 250 kts | 228° |
| 2026-05-05 18:22 | 38.50494 | -0.86980 | 9360 ft | 250 kts | 226° |
| 2026-05-05 18:22 | 38.49223 | -0.88490 | 9040 ft | 250 kts | 225° |
| 2026-05-05 18:22 | 38.47916 | -0.89952 | 8716 ft | 250 kts | 222° |
| 2026-05-05 18:23 | 38.46545 | -0.91319 | 8393 ft | 251 kts | 218° |
| 2026-05-05 18:23 | 38.45104 | -0.92570 | 8066 ft | 251 kts | 215° |
| 2026-05-05 18:23 | 38.43610 | -0.93727 | 7741 ft | 252 kts | 213° |
| 2026-05-05 18:23 | 38.42078 | -0.94819 | 7430 ft | 252 kts | 210° |
| 2026-05-05 18:24 | 38.40485 | -0.95800 | 7105 ft | 253 kts | 206° |
| 2026-05-05 18:24 | 38.38844 | -0.96647 | 6785 ft | 253 kts | 202° |
| 2026-05-05 18:24 | 38.37137 | -0.97174 | 6475 ft | 255 kts | 181° |
| 2026-05-05 18:24 | 38.35438 | -0.96598 | 6180 ft | 255 kts | 149° |
| 2026-05-05 18:25 | 38.34149 | -0.95086 | 5938 ft | 251 kts | 124° |
| 2026-05-05 18:25 | 38.33616 | -0.93793 | 5902 ft | 246 kts | 110° |
| 2026-05-05 18:25 | 38.33048 | -0.90970 | 5569 ft | 246 kts | 100° |
| 2026-05-05 18:25 | 38.32781 | -0.88884 | 5129 ft | 233 kts | 98° |
| 2026-05-05 18:26 | 38.32534 | -0.86917 | 4801 ft | 217 kts | 99° |
| 2026-05-05 18:26 | 38.32284 | -0.85081 | 4468 ft | 204 kts | 101° |
| 2026-05-05 18:26 | 38.32044 | -0.83358 | 4201 ft | 191 kts | 101° |
| 2026-05-05 18:26 | 38.31821 | -0.81734 | 3943 ft | 180 kts | 101° |
| 2026-05-05 18:27 | 38.31611 | -0.80208 | 3699 ft | 170 kts | 102° |
| 2026-05-05 18:27 | 38.31415 | -0.78791 | 3487 ft | 156 kts | 101° |
| 2026-05-05 18:27 | 38.31233 | -0.77475 | 3222 ft | 147 kts | 102° |
| 2026-05-05 18:27 | 38.31059 | -0.76219 | 3052 ft | 139 kts | 102° |
| 2026-05-05 18:28 | 38.30722 | -0.73788 | 2709 ft | 142 kts | 102° |
| 2026-05-05 18:28 | 38.30556 | -0.72540 | 2504 ft | 146 kts | 102° |
| 2026-05-05 18:28 | 38.30380 | -0.71270 | 2326 ft | 145 kts | 102° |
| 2026-05-05 18:29 | 38.30202 | -0.69996 | 2085 ft | 149 kts | 103° |
| 2026-05-05 18:29 | 38.30028 | -0.68718 | 1889 ft | 144 kts | 102° |
| 2026-05-05 18:29 | 38.29851 | -0.67468 | 1707 ft | 142 kts | 103° |
| 2026-05-05 18:29 | 38.29679 | -0.66233 | 1520 ft | 142 kts | 103° |
| 2026-05-05 18:30 | 38.29502 | -0.64989 | 1327 ft | 142 kts | 103° |
| 2026-05-05 18:30 | 38.29329 | -0.63756 | 1167 ft | 142 kts | 103° |
| 2026-05-05 18:30 | 38.29158 | -0.62501 | 947 ft | 144 kts | 102° |
| 2026-05-05 18:30 | 38.28992 | -0.61263 | 756 ft | 143 kts | 103° |
| 2026-05-05 18:31 | 38.28804 | -0.60029 | 562 ft | 141 kts | 103° |
| 2026-05-05 18:31 | 38.28635 | -0.58819 | 396 ft | 138 kts | 102° |
| 2026-05-05 18:31 | 38.28465 | -0.57611 | 208 ft | 139 kts | 103° |
| 2026-05-05 18:31 | 38.28305 | -0.56437 | 112 ft | 121 kts | 100° |
| 2026-05-05 18:32 | 38.28211 | -0.55686 | 94 ft | 49 kts | 82° |
| 2026-05-05 18:32 | 38.28255 | -0.55508 | 92 ft | 6 kts | 68° |
| 2026-05-05 18:32 | 38.28276 | -0.55437 | 92 ft | 9 kts | 69° |
| 2026-05-05 18:32 | 38.28307 | -0.55333 | 86 ft | 15 kts | 70° |
| 2026-05-05 18:33 | 38.28365 | -0.55202 | 81 ft | 18 kts | 51° |
| 2026-05-05 18:33 | 38.28447 | -0.55125 | 77 ft | 15 kts | 2° |
| 2026-05-05 18:33 | 38.28503 | -0.55124 | 76 ft | 0 kts | 359° |